createdAt,value
2019-01-18T00:01:56.709Z,97263.25
2019-01-18T00:04:45.517Z,97266.64
2019-01-18T00:07:34.317Z,97268.92
2019-01-18T00:10:23.131Z,97260.13
2019-01-18T00:13:11.952Z,97263.98
2019-01-18T00:16:00.743Z,97273.22
2019-01-18T00:18:49.553Z,97023.98
2019-01-18T00:21:38.349Z,97218.43
2019-01-18T00:27:21.276Z,97287.13
2019-01-18T00:30:31.374Z,97289.22
2019-01-18T00:36:34.831Z,97152.11
2019-01-18T00:39:23.631Z,97300.64
2019-01-18T00:42:12.424Z,97309.53
2019-01-18T00:45:01.228Z,97222.16
2019-01-18T00:47:42.613Z,97313.41
2019-01-18T00:50:31.426Z,97166.13
2019-01-18T00:53:20.233Z,97321.77
2019-01-18T00:56:09.112Z,97336.22
2019-01-18T00:58:57.940Z,97345.88
2019-01-18T01:01:46.730Z,97353.12
2019-01-18T01:04:35.538Z,97122.98
2019-01-18T01:07:17.324Z,97224.83
2019-01-18T01:10:27.044Z,97064.52
2019-01-18T01:13:15.901Z,97359.98
2019-01-18T01:18:58.943Z,97371.42
2019-01-18T01:21:48.813Z,97369.34
2019-01-18T01:24:37.661Z,97108.12
2019-01-18T01:27:26.409Z,97147.05
2019-01-18T01:30:36.129Z,97397.16
2019-01-18T01:33:24.919Z,97253.38
2019-01-18T01:36:13.741Z,97409.16
2019-01-18T01:42:11.927Z,97419.72
2019-01-18T01:45:00.789Z,97422.63
2019-01-18T01:47:40.529Z,97427.59
2019-01-18T01:50:29.307Z,97426.84
2019-01-18T01:53:18.139Z,97429.19
2019-01-18T01:56:06.940Z,97430.88
2019-01-18T01:58:55.753Z,97438.61
2019-01-18T02:02:03.649Z,97446.29
2019-01-18T02:04:52.460Z,97447.34
2019-01-18T02:07:41.330Z,97461.31
2019-01-18T02:10:30.135Z,97463.47
2019-01-18T02:13:18.958Z,97467.18
2019-01-18T02:16:07.902Z,97466.56
2019-01-18T02:18:56.735Z,97411.48
2019-01-18T02:21:45.698Z,97487.13
2019-01-18T02:24:34.663Z,97493.97
2019-01-18T02:27:23.500Z,97500.73
2019-01-18T02:30:31.703Z,97500.08
2019-01-18T02:33:20.847Z,97508.55
2019-01-18T02:36:09.729Z,97503.05
2019-01-18T02:38:58.536Z,97507.33
2019-01-18T02:41:47.361Z,97514.55
2019-01-18T02:44:36.138Z,97517.11
2019-01-18T02:47:24.951Z,97509.52
2019-01-18T02:50:08.140Z,97527.86
2019-01-18T02:52:56.942Z,97528.32
2019-01-18T02:58:33.604Z,97534.74
2019-01-18T03:01:22.385Z,97479.24
2019-01-18T03:04:11.206Z,97550.24
2019-01-18T03:09:47.869Z,97283.48
2019-01-18T03:12:36.683Z,97555.37
2019-01-18T03:15:25.495Z,97560.76
2019-01-18T03:18:14.296Z,97538.36
2019-01-18T03:21:03.081Z,97578.27
2019-01-18T03:23:51.962Z,97530.11
2019-01-18T03:26:40.755Z,97585.91
2019-01-18T03:29:29.576Z,97590.94
2019-01-18T03:32:18.370Z,97594.64
2019-01-18T03:35:28.106Z,97600.92
2019-01-18T03:38:16.985Z,97353.09
2019-01-18T03:46:54.873Z,97617.86
2019-01-18T03:49:36.312Z,97623.42
2019-01-18T03:52:25.132Z,97633.38
2019-01-18T03:55:14.167Z,97384.67
2019-01-18T03:58:02.995Z,97401.51
2019-01-18T04:00:51.834Z,97643.57
2019-01-18T04:03:40.624Z,97382.50
2019-01-18T04:06:22.377Z,97652.81
2019-01-18T04:09:11.173Z,97506.50
2019-01-18T04:11:59.978Z,97660.56
2019-01-18T04:14:48.775Z,97672.45
2019-01-18T04:17:37.590Z,97675.64
2019-01-18T04:20:26.458Z,97687.41
2019-01-18T04:23:15.247Z,97693.14
2019-01-18T04:26:04.054Z,97701.08
2019-01-18T04:28:52.918Z,97540.69
2019-01-18T04:31:41.710Z,97702.18
2019-01-18T04:34:30.524Z,97708.83
2019-01-18T04:37:19.341Z,97707.20
2019-01-18T04:40:27.954Z,97726.02
2019-01-18T04:43:16.775Z,97566.86
2019-01-18T04:46:24.684Z,97490.30
2019-01-18T04:49:13.463Z,97734.75
2019-01-18T04:51:55.158Z,97737.87
2019-01-18T04:54:43.959Z,97643.76
2019-01-18T04:57:32.764Z,97747.14
2019-01-18T05:00:42.455Z,97755.71
2019-01-18T05:03:31.267Z,97764.22
2019-01-18T05:06:20.096Z,97681.14
2019-01-18T05:09:08.895Z,97758.91
2019-01-18T05:11:57.699Z,97760.65
2019-01-18T05:17:55.944Z,97770.75
2019-01-18T05:20:44.737Z,97768.50
2019-01-18T05:23:33.541Z,97782.50
2019-01-18T05:26:22.668Z,97578.66
2019-01-18T05:29:11.467Z,97528.02
2019-01-18T05:32:00.281Z,97798.20
2019-01-18T05:34:49.074Z,97804.22
2019-01-18T05:37:37.882Z,97816.84
2019-01-18T05:40:26.672Z,97823.02
2019-01-18T05:43:15.470Z,97611.20
2019-01-18T05:46:04.414Z,97675.81
2019-01-18T05:48:53.221Z,97839.59
2019-01-18T05:51:34.682Z,97840.59
2019-01-18T05:54:23.516Z,97843.79
2019-01-18T05:57:12.318Z,97555.19
2019-01-18T06:00:01.104Z,97848.80
2019-01-18T06:02:49.919Z,97853.72
2019-01-18T06:08:44.546Z,97863.08
2019-01-18T06:11:33.361Z,97862.95
2019-01-18T06:14:22.174Z,97862.43
2019-01-18T06:17:10.979Z,97869.58
2019-01-18T06:20:00.232Z,97629.40
2019-01-18T06:22:50.688Z,97868.09
2019-01-18T06:25:39.501Z,97768.75
2019-01-18T06:28:28.319Z,97576.45
2019-01-18T06:31:17.118Z,97875.75
2019-01-18T06:33:46.598Z,97878.54
2019-01-18T06:36:35.739Z,97876.45
2019-01-18T06:39:24.532Z,97877.69
2019-01-18T06:42:13.357Z,97884.23
2019-01-18T06:45:02.169Z,97890.48
2019-01-18T06:47:51.040Z,97785.36
2019-01-18T06:50:39.868Z,97900.61
2019-01-18T06:53:21.569Z,97918.88
2019-01-18T06:56:10.373Z,97674.84
2019-01-18T06:58:59.200Z,97915.73
2019-01-18T07:01:48.009Z,97791.03
2019-01-18T07:04:40.806Z,97925.98
2019-01-18T07:07:27.356Z,97931.28
2019-01-18T07:10:37.068Z,97938.22
2019-01-18T07:13:25.877Z,97938.11
2019-01-18T07:16:14.692Z,97948.63
2019-01-18T07:19:03.521Z,97952.62
2019-01-18T07:21:52.480Z,97982.95
2019-01-18T07:24:41.335Z,97963.42
2019-01-18T07:27:30.139Z,97967.22
2019-01-18T07:30:39.885Z,97978.40
2019-01-18T07:33:28.692Z,97896.41
2019-01-18T07:36:17.545Z,97991.02
2019-01-18T07:39:27.265Z,97993.27
2019-01-18T07:42:16.050Z,97993.98
2019-01-18T07:45:25.770Z,98007.43
2019-01-18T07:48:14.570Z,98012.61
2019-01-18T07:51:03.402Z,97856.17
2019-01-18T07:53:44.757Z,98026.36
2019-01-18T07:56:33.573Z,98026.80
2019-01-18T07:59:22.367Z,98027.58
2019-01-18T08:02:11.194Z,98034.27
2019-01-18T08:04:59.981Z,98038.67
2019-01-18T08:07:48.868Z,98048.25
2019-01-18T08:10:37.663Z,98049.66
2019-01-18T08:13:26.486Z,98057.22
2019-01-18T08:16:15.284Z,98058.73
2019-01-18T08:19:04.108Z,97773.89
2019-01-18T08:21:52.920Z,98074.59
2019-01-18T08:24:41.730Z,98081.55
2019-01-18T08:27:30.525Z,98084.66
2019-01-18T08:30:40.275Z,98091.41
2019-01-18T08:33:29.066Z,98092.30
2019-01-18T08:36:17.958Z,98100.36
2019-01-18T08:42:02.738Z,98099.98
2019-01-18T08:44:51.534Z,98095.27
2019-01-18T08:47:40.354Z,98088.78
2019-01-18T08:50:29.151Z,98092.06
2019-01-18T08:53:10.958Z,98088.24
2019-01-18T08:55:59.817Z,98086.77
2019-01-18T08:58:48.653Z,97849.51
2019-01-18T09:01:37.448Z,98092.84
2019-01-18T09:04:26.274Z,98102.58
2019-01-18T09:07:15.082Z,97830.45
2019-01-18T09:13:18.951Z,98097.64
2019-01-18T09:16:07.746Z,97836.14
2019-01-18T09:18:56.618Z,98098.62
2019-01-18T09:21:45.365Z,97866.81
2019-01-18T09:24:34.189Z,98104.36
2019-01-18T09:27:22.994Z,98101.37
2019-01-18T09:33:28.471Z,98084.34
2019-01-18T09:36:17.366Z,98111.35
2019-01-18T09:39:27.083Z,97900.94
2019-01-18T09:42:15.891Z,98128.34
2019-01-18T09:45:25.596Z,98133.32
2019-01-18T09:48:14.414Z,98126.27
2019-01-18T09:51:03.275Z,98129.19
2019-01-18T09:53:45.179Z,98124.45
2019-01-18T09:56:33.995Z,97977.88
2019-01-18T09:59:22.787Z,98134.25
2019-01-18T10:02:11.583Z,98137.05
2019-01-18T10:05:00.405Z,98139.67
2019-01-18T10:07:49.197Z,98144.02
2019-01-18T10:10:37.998Z,98145.77
2019-01-18T10:13:26.795Z,98147.86
2019-01-18T10:16:34.707Z,98150.76
2019-01-18T10:19:23.493Z,98145.92
2019-01-18T10:22:31.315Z,98032.50
2019-01-18T10:25:20.281Z,98137.33
2019-01-18T10:28:09.087Z,98141.66
2019-01-18T10:30:57.890Z,98147.37
2019-01-18T10:33:46.708Z,98144.23
2019-01-18T10:36:35.489Z,98144.82
2019-01-18T10:39:24.317Z,98110.52
2019-01-18T10:42:13.126Z,98153.14
2019-01-18T10:45:01.935Z,98152.19
2019-01-18T10:51:00.396Z,97903.11
2019-01-18T10:53:49.187Z,98155.31
2019-01-18T10:56:30.857Z,98157.00
2019-01-18T10:59:19.662Z,97972.25
2019-01-18T11:02:08.449Z,98156.61
2019-01-18T11:04:57.270Z,98092.86
2019-01-18T11:07:46.110Z,98168.44
2019-01-18T11:10:34.918Z,98165.63
2019-01-18T11:13:23.711Z,98165.84
2019-01-18T11:16:12.520Z,98157.32
2019-01-18T11:19:01.314Z,97952.72
2019-01-18T11:24:45.742Z,98162.13
2019-01-18T11:27:34.534Z,98161.75
2019-01-18T11:30:23.342Z,98156.55
2019-01-18T11:33:12.129Z,98158.73
2019-01-18T11:36:00.942Z,98161.23
2019-01-18T11:38:49.734Z,98162.23
2019-01-18T11:41:38.539Z,98156.36
2019-01-18T11:44:27.332Z,98160.31
2019-01-18T11:47:16.147Z,97952.71
2019-01-18T11:50:25.948Z,98169.38
2019-01-18T11:53:14.754Z,98162.61
2019-01-18T11:55:56.352Z,98116.98
2019-01-18T11:58:45.159Z,98156.64
2019-01-18T12:01:33.952Z,98152.38
2019-01-18T12:04:22.760Z,98152.42
2019-01-18T12:07:11.565Z,98147.70
2019-01-18T12:10:00.384Z,98153.69
2019-01-18T12:12:49.185Z,98149.84
2019-01-18T12:15:38.007Z,98084.16
2019-01-18T12:18:26.804Z,98151.93
2019-01-18T12:21:15.672Z,98151.91
2019-01-18T12:24:04.661Z,98155.33
2019-01-18T12:26:53.476Z,98154.33
2019-01-18T12:29:42.259Z,98156.08
2019-01-18T12:32:31.154Z,98158.16
2019-01-18T12:35:19.962Z,98168.38
2019-01-18T12:38:08.759Z,98067.06
2019-01-18T12:40:57.613Z,98158.70
2019-01-18T12:43:46.366Z,98158.72
2019-01-18T12:46:35.176Z,98158.31
2019-01-18T12:49:23.997Z,97920.63
2019-01-18T12:52:12.802Z,98158.39
2019-01-18T12:54:58.970Z,98152.84
2019-01-18T12:57:47.785Z,98145.14
2019-01-18T13:00:36.636Z,98156.16
2019-01-18T13:03:25.454Z,98151.27
2019-01-18T13:06:14.316Z,98156.33
2019-01-18T13:11:58.996Z,98148.92
2019-01-18T13:14:47.784Z,98150.61
2019-01-18T13:17:36.606Z,98156.29
2019-01-18T13:20:25.392Z,98151.09
2019-01-18T13:23:14.216Z,98149.42
2019-01-18T13:26:03.073Z,98145.18
2019-01-18T13:28:51.905Z,98147.39
2019-01-18T13:31:40.687Z,98146.91
2019-01-18T13:34:29.567Z,97909.00
2019-01-18T13:37:18.365Z,98141.84
2019-01-18T13:40:28.083Z,98143.16
2019-01-18T13:43:16.898Z,98150.13
2019-01-18T13:46:05.710Z,98153.30
2019-01-18T13:48:54.528Z,97933.36
2019-01-18T13:51:46.253Z,98149.16
2019-01-18T13:54:33.852Z,98147.03
2019-01-18T13:57:22.662Z,98153.13
2019-01-18T14:00:32.369Z,97945.55
2019-01-18T14:03:21.158Z,98150.56
2019-01-18T14:06:09.944Z,97914.02
2019-01-18T14:08:58.765Z,98147.73
2019-01-18T14:11:47.561Z,98151.23
2019-01-18T14:14:36.444Z,98150.83
2019-01-18T14:17:25.241Z,98151.78
2019-01-18T14:20:33.635Z,98066.20
2019-01-18T14:23:22.425Z,98154.69
2019-01-18T14:26:11.279Z,98152.09
2019-01-18T14:29:00.472Z,98154.20
2019-01-18T14:31:49.324Z,98041.87
2019-01-18T14:34:38.190Z,98145.01
2019-01-18T14:37:27.002Z,98140.41
2019-01-18T14:40:37.026Z,98140.45
2019-01-18T14:43:25.796Z,98140.72
2019-01-18T14:46:14.794Z,98130.91
2019-01-18T14:52:33.776Z,98146.95
2019-01-18T14:55:15.278Z,98145.84
2019-01-18T14:58:25.004Z,98143.23
2019-01-18T15:01:13.810Z,98140.64
2019-01-18T15:04:02.620Z,98144.88
2019-01-18T15:06:52.370Z,97883.23
2019-01-18T15:09:41.180Z,98143.22
2019-01-18T15:12:29.992Z,97985.75
2019-01-18T15:15:18.786Z,98141.76
2019-01-18T15:18:07.660Z,98153.91
2019-01-18T15:20:56.483Z,98155.80
2019-01-18T15:23:45.277Z,97936.50
2019-01-18T15:26:34.084Z,98157.66
2019-01-18T15:29:22.911Z,98082.25
2019-01-18T15:31:52.358Z,98162.31
2019-01-18T15:34:41.159Z,98162.40
2019-01-18T15:37:29.957Z,98167.88
2019-01-18T15:46:31.089Z,98178.27
2019-01-18T15:49:19.883Z,98187.28
2019-01-18T15:52:08.691Z,97909.27
2019-01-18T15:54:57.503Z,98182.70
2019-01-18T15:57:39.211Z,98181.81
2019-01-18T16:00:47.328Z,98179.98
2019-01-18T16:03:36.203Z,98175.13
2019-01-18T16:06:24.998Z,98176.52
2019-01-18T16:09:13.817Z,98164.60
2019-01-18T16:12:02.626Z,98177.72
2019-01-18T16:15:10.450Z,97881.80
2019-01-18T16:17:59.270Z,98176.23
2019-01-18T16:20:48.060Z,98178.71
2019-01-18T16:23:36.873Z,98177.34
2019-01-18T16:26:25.657Z,98183.97
2019-01-18T16:29:14.528Z,98192.48
2019-01-18T16:32:03.326Z,98188.92
2019-01-18T16:34:52.184Z,98197.80
2019-01-18T16:37:41.140Z,98192.17
2019-01-18T16:40:50.857Z,97909.88
2019-01-18T16:43:33.084Z,98200.16
2019-01-18T16:46:21.886Z,97926.57
2019-01-18T16:49:10.810Z,98203.27
2019-01-18T16:51:59.620Z,98206.04
2019-01-18T16:54:48.430Z,98202.86
2019-01-18T16:57:37.222Z,97925.36
2019-01-18T17:00:46.835Z,98205.56
2019-01-18T17:03:35.642Z,98209.89
2019-01-18T17:06:24.476Z,98207.55
2019-01-18T17:09:13.273Z,98208.12
2019-01-18T17:12:02.117Z,98205.22
2019-01-18T17:17:45.265Z,98205.47
2019-01-18T17:20:53.389Z,97966.02
2019-01-18T17:23:42.288Z,98208.56
2019-01-18T17:26:31.087Z,98211.41
2019-01-18T17:29:19.906Z,97930.94
2019-01-18T17:32:08.783Z,98217.95
2019-01-18T17:34:57.600Z,98216.45
2019-01-18T17:38:07.299Z,98216.41
2019-01-18T17:44:33.419Z,98215.09
2019-01-18T17:47:43.119Z,98222.49
2019-01-18T17:51:10.635Z,98235.83
2019-01-18T17:54:20.363Z,98221.50
2019-01-18T17:57:30.071Z,98217.91
2019-01-18T18:00:39.956Z,97961.17
2019-01-18T18:04:07.457Z,98213.97
2019-01-18T18:07:35.027Z,98219.24
2019-01-18T18:11:02.917Z,98215.97
2019-01-18T18:14:14.314Z,98217.56
2019-01-18T18:17:24.091Z,98222.72
2019-01-18T18:20:51.587Z,98223.02
2019-01-18T18:24:19.094Z,98220.42
2019-01-18T18:27:46.917Z,98226.91
2019-01-18T18:30:56.646Z,98222.83
2019-01-18T18:34:24.184Z,97933.71
2019-01-18T18:37:33.961Z,98221.88
2019-01-18T18:41:01.455Z,98223.54
2019-01-18T18:44:29.218Z,98223.70
2019-01-18T18:47:15.910Z,98132.94
2019-01-18T18:50:43.427Z,97941.06
2019-01-18T18:53:53.207Z,98184.86
2019-01-18T18:57:02.949Z,98216.77
2019-01-18T19:00:12.676Z,98208.13
2019-01-18T19:03:41.209Z,98204.68
2019-01-18T19:07:08.824Z,98202.56
2019-01-18T19:10:18.523Z,98195.46
2019-01-18T19:13:28.303Z,98182.00
2019-01-18T19:16:38.113Z,98191.44
2019-01-18T19:20:05.754Z,98020.04
2019-01-18T19:23:15.577Z,98189.01
2019-01-18T19:26:25.505Z,98190.44
2019-01-18T19:29:35.759Z,98113.03
2019-01-18T19:33:03.720Z,98197.70
2019-01-18T19:36:28.089Z,98195.00
2019-01-18T19:39:43.852Z,98183.61
2019-01-18T19:43:11.783Z,98182.64
2019-01-18T19:46:39.944Z,98189.19
2019-01-18T19:50:08.133Z,97866.68
2019-01-18T19:57:05.141Z,98182.02
2019-01-18T20:03:45.937Z,98184.81
2019-01-18T20:07:01.783Z,98185.00
2019-01-18T20:10:30.066Z,97942.41
2019-01-18T20:13:58.159Z,98193.22
2019-01-18T20:17:26.470Z,98196.00
2019-01-18T20:20:55.246Z,98194.42
2019-01-18T20:24:23.561Z,97930.58
2019-01-18T20:27:34.030Z,98192.00
2019-01-18T20:30:56.240Z,98191.23
2019-01-18T20:34:18.322Z,98087.73
2019-01-18T20:37:44.309Z,97891.28
2019-01-18T20:41:12.341Z,98068.91
2019-01-18T20:44:21.701Z,98190.14
2019-01-18T20:47:50.105Z,98152.58
2019-01-18T20:51:00.697Z,98196.11
2019-01-18T20:54:25.241Z,98195.65
2019-01-18T20:57:23.360Z,98107.34
2019-01-18T21:00:45.686Z,97884.90
2019-01-18T21:04:00.108Z,98196.58
2019-01-18T21:07:16.569Z,98206.16
2019-01-18T21:10:45.138Z,98201.60
2019-01-18T21:14:13.482Z,98201.60
2019-01-18T21:17:35.991Z,98200.59
2019-01-18T21:24:24.337Z,97901.70
2019-01-18T21:27:52.468Z,98192.52
2019-01-18T21:31:20.833Z,98191.98
2019-01-18T21:41:06.016Z,98193.78
2019-01-18T21:48:10.892Z,97932.73
2019-01-18T21:51:20.741Z,97893.59
2019-01-18T21:54:48.573Z,98192.77
2019-01-18T21:57:58.306Z,97920.09
2019-01-18T22:01:08.043Z,98200.70
2019-01-18T22:04:40.359Z,98196.22
2019-01-18T22:07:47.065Z,98203.22
2019-01-18T22:10:56.845Z,98202.05
2019-01-18T22:14:06.618Z,98203.48
2019-01-18T22:17:16.416Z,98206.28
2019-01-18T22:20:44.155Z,98070.88
2019-01-18T22:23:54.146Z,98205.17
2019-01-18T22:27:03.994Z,98205.62
2019-01-18T22:30:13.795Z,98204.12
2019-01-18T22:33:23.517Z,98206.56
2019-01-18T22:36:33.577Z,97904.19
2019-01-18T22:39:43.280Z,98207.60
2019-01-18T22:42:53.001Z,98203.56
2019-01-18T22:45:36.833Z,98198.61
2019-01-18T22:48:46.562Z,97911.21
2019-01-18T22:51:56.395Z,98020.89
2019-01-18T22:55:06.184Z,98196.68
2019-01-18T22:58:15.958Z,98202.97
2019-01-18T23:01:43.531Z,97945.86
2019-01-18T23:04:55.634Z,98199.45
2019-01-18T23:08:22.658Z,98207.33
2019-01-18T23:11:32.415Z,98200.27
2019-01-18T23:14:59.995Z,98202.63
2019-01-18T23:18:09.718Z,98197.73
2019-01-18T23:21:37.221Z,98199.55
2019-01-18T23:24:46.954Z,97915.02
2019-01-18T23:27:56.663Z,98190.12
2019-01-18T23:31:06.434Z,98196.27
2019-01-18T23:34:16.155Z,98188.71
2019-01-18T23:37:25.938Z,98193.77
2019-01-18T23:40:35.688Z,98188.42
2019-01-18T23:43:45.506Z,98189.16
2019-01-18T23:47:13.962Z,98188.02
2019-01-18T23:50:23.813Z,98186.52
2019-01-18T23:57:21.679Z,98180.69
